Time;durP1;ratioP1;P1;durP2;ratioP2;P2;SDS_P1;SDS_P2;PMS_P1;PMS_P2;Temp;Humidity;BMP_temperature;BMP_pressure;BME280_temperature;BME280_humidity;BME280_pressure;Samples;Min_cycle;Max_cycle;Signal;HPM_P1;HPM_P2
2023/09/13 00:00:54;;;;;;;1.87;1.77;;;;;;;19.97;79.87;99660.03;5115004;28;20201;-64
2023/09/13 00:03:21;;;;;;;1.60;1.50;;;;;;;19.95;80.10;99660.09;5114993;28;20219;-64
2023/09/13 00:05:48;;;;;;;1.97;1.97;;;;;;;19.96;80.16;99655.75;5114787;28;20249;-64
2023/09/13 00:08:14;;;;;;;2.03;1.93;;;;;;;19.95;80.21;99654.91;5114000;28;20208;-65
2023/09/13 00:10:44;;;;;;;1.67;1.67;;;;;;;19.96;80.21;99661.78;5114978;28;20200;-64
2023/09/13 00:13:12;;;;;;;2.43;2.23;;;;;;;19.96;80.64;99661.78;5114849;28;20286;-64
2023/09/13 00:15:42;;;;;;;2.30;2.20;;;;;;;19.96;80.56;99660.94;5114825;28;20196;-64
2023/09/13 00:18:09;;;;;;;1.50;1.50;;;;;;;19.91;80.47;99659.47;5114145;28;20254;-64
2023/09/13 00:20:37;;;;;;;1.97;1.87;;;;;;;19.96;80.23;99667.00;5114351;28;20199;-64
2023/09/13 00:23:05;;;;;;;2.00;1.90;;;;;;;19.76;80.71;99638.81;5114681;28;20212;-65
2023/09/13 00:25:31;;;;;;;2.00;1.90;;;;;;;19.89;80.84;99674.34;5114931;28;20202;-65
2023/09/13 00:27:58;;;;;;;2.33;2.23;;;;;;;19.89;80.76;99676.97;5114825;27;20748;-64
2023/09/13 00:30:26;;;;;;;1.80;1.67;;;;;;;19.88;81.18;99670.06;5113839;28;20266;-65
2023/09/13 00:32:53;;;;;;;1.90;1.80;;;;;;;19.89;81.36;99679.56;5114359;28;20193;-65
2023/09/13 00:35:19;;;;;;;4.90;2.03;;;;;;;19.90;81.25;99681.22;5114385;28;20195;-64
2023/09/13 00:37:46;;;;;;;1.73;1.63;;;;;;;19.82;81.43;99660.06;5112698;28;20202;-64
2023/09/13 00:40:13;;;;;;;2.33;2.17;;;;;;;19.86;82.00;99677.16;5114304;28;20204;-65
2023/09/13 00:42:39;;;;;;;1.60;1.60;;;;;;;19.84;82.50;99679.00;5114244;28;20273;-65
2023/09/13 00:45:07;;;;;;;1.90;1.80;;;;;;;19.84;82.91;99683.38;5114329;28;20249;-65
2023/09/13 00:47:36;;;;;;;1.97;1.80;;;;;;;19.83;83.05;99682.56;5113804;28;20227;-64
2023/09/13 00:50:06;;;;;;;2.03;1.90;;;;;;;19.83;83.17;99677.34;5114138;28;20256;-64
2023/09/13 00:52:33;;;;;;;0.97;0.97;;;;;;;19.84;82.78;99679.00;5113868;28;20194;-65
2023/09/13 00:55:00;;;;;;;1.57;1.47;;;;;;;19.85;83.46;99678.06;5114315;28;20192;-64
2023/09/13 00:57:27;;;;;;;1.50;1.50;;;;;;;19.81;83.83;99679.19;5113494;28;20194;-64
2023/09/13 00:59:54;;;;;;;2.23;2.03;;;;;;;19.78;84.01;99684.59;5114071;28;20229;-65
2023/09/13 01:02:20;;;;;;;1.37;1.37;;;;;;;19.76;83.89;99678.66;5113711;28;20221;-64
2023/09/13 01:04:48;;;;;;;1.70;1.60;;;;;;;19.75;84.19;99679.59;5112685;28;20204;-64
2023/09/13 01:07:15;;;;;;;2.10;1.63;;;;;;;19.76;84.90;99683.03;5113776;28;20256;-64
2023/09/13 01:09:43;;;;;;;1.70;1.60;;;;;;;19.65;84.43;99668.09;5113291;28;20199;-64
2023/09/13 01:12:10;;;;;;;1.17;1.17;;;;;;;19.72;84.61;99682.38;5113105;28;20259;-64
2023/09/13 01:14:37;;;;;;;1.37;1.37;;;;;;;19.69;84.61;99679.97;5113261;28;20199;-64
2023/09/13 01:17:14;;;;;;;1.73;1.70;;;;;;;19.67;84.54;99671.44;5113325;28;20205;-64
2023/09/13 01:19:57;;;;;;;1.57;1.57;;;;;;;19.65;84.92;99673.28;5113588;28;20642;-64
2023/09/13 01:23:05;;;;;;;1.93;1.83;;;;;;;19.64;84.91;99682.03;5113494;28;20308;-64
2023/09/13 01:25:58;;;;;;;1.90;1.90;;;;;;;19.63;85.27;99685.56;5113522;28;20197;-64
2023/09/13 01:28:34;;;;;;;1.93;1.57;;;;;;;19.60;85.57;99685.75;5112791;28;20191;-64
2023/09/13 01:31:03;;;;;;;1.40;1.40;;;;;;;19.57;85.77;99685.97;5111862;28;20264;-64
2023/09/13 01:33:30;;;;;;;1.73;1.63;;;;;;;19.56;85.81;99696.44;5113452;28;20283;-64
2023/09/13 01:35:57;;;;;;;2.10;2.00;;;;;;;19.51;86.10;99681.13;5113007;28;20197;-65
2023/09/13 01:38:24;;;;;;;1.80;1.70;;;;;;;19.54;86.05;99693.94;5113221;28;20209;-64
2023/09/13 01:40:53;;;;;;;5.17;1.73;;;;;;;19.42;85.65;99673.06;5112401;28;20252;-65
2023/09/13 01:43:20;;;;;;;1.80;1.70;;;;;;;19.49;85.90;99687.34;5112976;28;20214;-64
2023/09/13 01:45:49;;;;;;;1.90;1.80;;;;;;;19.44;85.85;99695.44;5112629;28;20215;-64
2023/09/13 01:48:19;;;;;;;1.90;1.80;;;;;;;19.42;85.74;99683.47;5113095;28;20203;-65
2023/09/13 01:50:47;;;;;;;4.93;1.73;;;;;;;19.37;85.83;99689.75;5112983;28;20257;-64
2023/09/13 01:53:14;;;;;;;1.47;1.47;;;;;;;19.31;85.75;99689.28;5112959;28;20666;-65
2023/09/13 01:55:40;;;;;;;1.80;1.80;;;;;;;19.18;86.05;99688.38;5112944;28;20251;-65
2023/09/13 01:58:07;;;;;;;2.10;2.00;;;;;;;19.08;86.05;99671.66;5112628;28;20200;-64
2023/09/13 02:00:34;;;;;;;1.80;1.70;;;;;;;19.13;86.46;99690.41;5113027;28;20199;-64
2023/09/13 02:03:02;;;;;;;1.67;1.63;;;;;;;19.08;86.80;99692.44;5112446;28;20286;-64
2023/09/13 02:05:28;;;;;;;1.90;1.80;;;;;;;19.01;87.12;99691.13;5112406;28;20659;-64
2023/09/13 02:07:55;;;;;;;1.90;1.90;;;;;;;18.88;87.89;99685.84;5112369;28;20251;-64
2023/09/13 02:10:22;;;;;;;1.90;1.80;;;;;;;18.87;88.18;99690.19;5112645;28;20199;-66
2023/09/13 02:12:48;;;;;;;2.00;1.80;;;;;;;18.84;88.09;99690.38;5112494;28;20211;-64
2023/09/13 02:15:15;;;;;;;2.67;2.47;;;;;;;18.86;87.67;99693.75;5111831;28;20624;-64
2023/09/13 02:17:43;;;;;;;1.90;1.80;;;;;;;18.82;87.75;99689.66;5111677;28;20207;-65
2023/09/13 02:20:12;;;;;;;1.60;1.53;;;;;;;18.82;87.90;99687.06;5112292;28;20257;-64
2023/09/13 02:22:39;;;;;;;2.10;1.97;;;;;;;18.80;87.84;99694.09;5112436;28;20211;-64
2023/09/13 02:25:06;;;;;;;2.30;1.73;;;;;;;18.70;87.83;99684.34;5112335;28;20208;-64
2023/09/13 02:27:34;;;;;;;2.00;1.90;;;;;;;18.77;88.09;99696.84;5111772;28;20198;-64
2023/09/13 02:30:03;;;;;;;1.67;1.67;;;;;;;18.75;87.63;99696.13;5112404;28;20191;-64
2023/09/13 02:32:30;;;;;;;1.97;1.87;;;;;;;18.74;87.89;99693.63;5112272;28;20194;-64
2023/09/13 02:34:57;;;;;;;1.57;1.47;;;;;;;18.70;87.50;99687.78;5112309;28;20206;-64
2023/09/13 02:37:25;;;;;;;1.40;1.40;;;;;;;18.71;87.88;99686.84;5111332;28;20199;-64
2023/09/13 02:39:52;;;;;;;2.00;1.90;;;;;;;18.69;88.16;99686.09;5112753;28;20447;-67
2023/09/13 02:42:18;;;;;;;1.87;1.83;;;;;;;18.59;88.31;99671.97;5112837;28;20658;-66
2023/09/13 02:44:45;;;;;;;1.47;1.47;;;;;;;18.68;88.61;99683.59;5113249;28;20194;-66
2023/09/13 02:47:12;;;;;;;1.57;1.57;;;;;;;18.65;88.65;99688.97;5112621;28;20751;-66
2023/09/13 02:49:39;;;;;;;2.37;1.73;;;;;;;18.62;88.92;99683.94;5112728;28;20252;-67
2023/09/13 02:52:06;;;;;;;1.70;1.70;;;;;;;18.60;89.19;99691.84;5112698;28;20198;-66
2023/09/13 02:54:34;;;;;;;5.03;1.90;;;;;;;18.57;89.50;99686.81;5112504;28;20203;-66
2023/09/13 02:57:01;;;;;;;1.03;1.03;;;;;;;18.53;89.94;99689.69;5112522;28;20285;-66
2023/09/13 02:59:28;;;;;;;2.03;1.93;;;;;;;18.51;90.12;99692.38;5112441;28;20623;-67
2023/09/13 03:01:55;;;;;;;2.40;2.30;;;;;;;18.52;90.22;99694.03;5112499;28;20249;-66
2023/09/13 03:04:21;;;;;;;2.40;2.30;;;;;;;18.48;90.44;99691.69;5112457;28;20731;-66
2023/09/13 03:06:49;;;;;;;3.90;1.27;;;;;;;18.43;90.41;99693.69;5112863;28;20195;-66
2023/09/13 03:09:15;;;;;;;1.67;1.63;;;;;;;18.36;90.69;99688.03;5112594;28;20202;-66
2023/09/13 03:11:43;;;;;;;2.67;1.80;;;;;;;18.32;91.06;99696.91;5111915;28;20249;-67
2023/09/13 03:14:11;;;;;;;1.67;1.57;;;;;;;18.25;91.19;99696.44;5112274;28;20187;-67
2023/09/13 03:16:38;;;;;;;1.70;1.60;;;;;;;18.17;91.44;99709.00;5112163;28;20195;-66
2023/09/13 03:19:06;;;;;;;1.90;1.80;;;;;;;18.11;91.94;99700.72;5112377;27;20202;-66
2023/09/13 03:21:32;;;;;;;2.83;2.63;;;;;;;17.93;92.81;99699.16;5111980;28;20256;-66
2023/09/13 03:23:59;;;;;;;1.57;1.37;;;;;;;17.88;92.97;99695.97;5112212;28;20636;-66
2023/09/13 03:26:26;;;;;;;1.77;1.70;;;;;;;17.88;92.65;99699.41;5112111;28;20259;-66
2023/09/13 03:28:56;;;;;;;1.77;1.67;;;;;;;17.76;92.46;99676.75;5111768;28;20244;-66
2023/09/13 03:31:24;;;;;;;1.70;1.60;;;;;;;17.79;92.43;99697.31;5111993;28;20206;-66
2023/09/13 03:33:52;;;;;;;2.03;1.93;;;;;;;17.64;92.88;99683.41;5112126;28;20853;-66
2023/09/13 03:36:21;;;;;;;5.47;2.00;;;;;;;17.74;92.86;99707.09;5112262;28;20633;-66
2023/09/13 03:38:48;;;;;;;0.90;0.90;;;;;;;17.69;92.96;99715.13;5111644;28;20247;-66
2023/09/13 03:41:17;;;;;;;1.23;1.23;;;;;;;17.69;93.08;99706.50;5112034;28;20735;-66
2023/09/13 03:43:43;;;;;;;1.90;1.80;;;;;;;17.69;93.51;99701.34;5111706;28;20219;-66
2023/09/13 03:46:11;;;;;;;1.37;1.37;;;;;;;17.68;93.67;99700.50;5111726;28;20226;-66
2023/09/13 03:48:40;;;;;;;1.50;1.40;;;;;;;17.67;93.97;99709.19;5111608;28;20190;-66
2023/09/13 03:51:07;;;;;;;1.90;1.90;;;;;;;17.66;93.91;99707.53;5112105;28;20641;-66
2023/09/13 03:53:35;;;;;;;1.97;1.87;;;;;;;17.62;94.30;99711.19;5111868;28;20187;-66
2023/09/13 03:56:03;;;;;;;1.53;1.53;;;;;;;17.58;94.32;99708.84;5111724;28;20202;-66
2023/09/13 03:58:30;;;;;;;1.50;1.50;;;;;;;17.57;94.67;99707.19;5111648;28;20244;-66
2023/09/13 04:00:57;;;;;;;1.87;1.77;;;;;;;17.56;94.58;99721.91;5111668;28;20263;-66
2023/09/13 04:03:25;;;;;;;3.27;1.77;;;;;;;17.55;94.41;99712.44;5111843;28;20235;-66
2023/09/13 04:05:52;;;;;;;1.50;1.40;;;;;;;17.33;94.75;99688.56;5111529;28;20190;-66
2023/09/13 04:08:19;;;;;;;5.43;1.93;;;;;;;17.54;94.84;99715.94;5111653;28;20206;-66
2023/09/13 04:10:46;;;;;;;1.67;1.67;;;;;;;17.54;94.90;99721.13;5111608;28;20198;-66
2023/09/13 04:13:13;;;;;;;1.63;1.63;;;;;;;17.49;94.99;99723.09;5111543;28;20260;-66
2023/09/13 04:15:39;;;;;;;2.30;1.70;;;;;;;17.48;94.94;99729.19;5111580;28;20195;-66
2023/09/13 04:18:08;;;;;;;2.30;2.00;;;;;;;17.49;95.06;99730.88;5111318;28;20199;-66
2023/09/13 04:20:36;;;;;;;2.83;2.60;;;;;;;17.47;95.12;99727.53;5111344;28;20286;-66
2023/09/13 04:23:02;;;;;;;2.30;2.10;;;;;;;17.48;94.88;99730.97;5111409;28;20226;-65
2023/09/13 04:25:29;;;;;;;1.70;1.70;;;;;;;17.49;94.96;99736.06;5111567;28;20195;-66
2023/09/13 04:27:56;;;;;;;1.67;1.40;;;;;;;17.48;95.13;99734.38;5111399;28;20648;-65
2023/09/13 04:30:23;;;;;;;1.50;1.50;;;;;;;17.49;95.69;99725.69;5111582;28;20250;-66
2023/09/13 04:32:49;;;;;;;1.43;1.43;;;;;;;17.47;96.55;99721.53;5111751;28;20627;-66
2023/09/13 04:35:17;;;;;;;1.40;1.40;;;;;;;17.50;96.67;99727.38;5111332;28;20198;-66
2023/09/13 04:37:45;;;;;;;2.07;1.97;;;;;;;17.37;96.91;99704.78;5111212;28;20251;-67
2023/09/13 04:40:12;;;;;;;2.07;1.97;;;;;;;17.59;96.30;99732.09;5113587;28;20222;-66
2023/09/13 04:42:43;;;;;;;4.60;2.10;;;;;;;17.67;96.12;99735.09;5115319;28;20195;-66
2023/09/13 04:45:11;;;;;;;2.20;2.10;;;;;;;17.69;96.27;99722.91;5115170;28;20198;-66
2023/09/13 04:47:40;;;;;;;1.43;1.43;;;;;;;17.52;96.01;99689.25;5115114;28;20237;-66
2023/09/13 04:50:09;;;;;;;2.03;2.03;;;;;;;17.83;96.34;99735.94;5114795;28;20728;-66
2023/09/13 04:52:36;;;;;;;1.47;1.40;;;;;;;17.89;95.52;99723.59;5114786;28;20198;-66
2023/09/13 04:55:05;;;;;;;1.60;1.60;;;;;;;18.07;95.13;99736.38;5115083;28;20255;-66
2023/09/13 04:57:32;;;;;;;2.87;2.10;;;;;;;18.15;94.58;99725.59;5114994;28;20223;-65
2023/09/13 04:59:59;;;;;;;1.80;1.70;;;;;;;18.33;93.97;99727.13;5115010;27;20281;-66
2023/09/13 05:02:26;;;;;;;2.10;2.03;;;;;;;18.36;93.58;99712.22;5114756;28;20202;-66
2023/09/13 05:04:53;;;;;;;2.20;2.10;;;;;;;18.58;93.26;99724.84;5114790;28;20218;-67
2023/09/13 05:07:20;;;;;;;2.73;2.17;;;;;;;18.71;92.04;99730.16;5115098;28;20338;-66
2023/09/13 05:09:46;;;;;;;4.87;1.87;;;;;;;18.85;91.94;99732.78;5114555;28;20627;-65
2023/09/13 05:12:15;;;;;;;2.27;2.17;;;;;;;18.75;90.84;99695.28;5114555;28;20197;-66
2023/09/13 05:14:43;;;;;;;3.17;2.80;;;;;;;19.15;90.00;99732.75;5114989;28;20196;-67
2023/09/13 05:17:10;;;;;;;3.10;2.23;;;;;;;19.31;89.81;99736.09;5114830;28;20203;-67
2023/09/13 05:19:37;;;;;;;2.37;2.27;;;;;;;19.50;89.59;99741.88;5114829;28;20563;-67
2023/09/13 05:22:04;;;;;;;2.27;2.10;;;;;;;19.67;88.10;99739.06;5114845;28;20207;-67
2023/09/13 05:24:31;;;;;;;2.70;2.50;;;;;;;19.86;87.10;99743.97;5114424;28;20215;-67
2023/09/13 05:26:58;;;;;;;2.03;1.93;;;;;;;20.07;86.96;99733.94;5114781;28;20203;-67
2023/09/13 05:29:26;;;;;;;2.50;2.40;;;;;;;20.24;86.46;99744.97;5114581;28;20212;-66
2023/09/13 05:31:52;;;;;;;1.87;1.87;;;;;;;20.44;84.67;99741.09;5114536;28;20672;-67
2023/09/13 05:34:19;;;;;;;2.47;2.27;;;;;;;20.64;84.09;99737.19;5111741;28;20248;-68
2023/09/13 05:36:46;;;;;;;3.43;2.67;;;;;;;20.79;82.99;99741.38;5112083;28;20198;-70
2023/09/13 05:39:12;;;;;;;2.63;2.37;;;;;;;20.99;80.69;99748.72;5112981;28;20209;-66
2023/09/13 05:41:39;;;;;;;5.03;2.87;;;;;;;21.06;80.18;99743.91;5113902;28;20204;-67
2023/09/13 05:44:09;;;;;;;2.07;1.97;;;;;;;21.03;79.25;99736.31;5113851;28;20214;-68
2023/09/13 05:46:37;;;;;;;2.10;2.00;;;;;;;21.27;80.61;99742.47;5113552;28;20307;-67
2023/09/13 05:49:04;;;;;;;2.10;2.00;;;;;;;21.47;80.02;99744.56;5113389;28;20285;-68
2023/09/13 05:51:31;;;;;;;2.83;2.10;;;;;;;21.66;77.29;99744.94;5112424;28;20202;-66
2023/09/13 05:53:58;;;;;;;2.30;2.20;;;;;;;21.82;76.80;99747.28;5112672;28;20206;-67
2023/09/13 05:56:25;;;;;;;2.07;1.97;;;;;;;21.98;74.76;99753.97;5111557;28;20262;-66
2023/09/13 05:58:51;;;;;;;1.70;1.60;;;;;;;22.18;74.46;99751.69;5112543;28;20256;-69
2023/09/13 06:01:18;;;;;;;2.50;2.40;;;;;;;22.37;74.12;99750.25;5111605;28;20731;-67
2023/09/13 06:03:47;;;;;;;2.40;2.20;;;;;;;22.44;74.04;99742.81;5111766;28;20209;-67
2023/09/13 06:06:13;;;;;;;2.17;2.07;;;;;;;22.63;73.07;99748.34;5112604;28;20259;-65
2023/09/13 06:08:40;;;;;;;5.20;2.63;;;;;;;22.75;71.90;99752.69;5112682;28;20195;-66
2023/09/13 06:11:07;;;;;;;2.10;2.00;;;;;;;22.86;70.98;99760.56;5113255;28;20207;-65
2023/09/13 06:13:36;;;;;;;1.90;1.80;;;;;;;22.94;70.79;99768.66;5113169;28;20282;-68
2023/09/13 06:16:04;;;;;;;2.50;2.40;;;;;;;23.09;72.89;99763.22;5113250;28;20227;-65
2023/09/13 06:18:30;;;;;;;5.40;2.37;;;;;;;23.22;72.10;99756.13;5113392;28;20195;-68
2023/09/13 06:20:59;;;;;;;7.13;3.07;;;;;;;23.34;67.86;99761.22;5113085;28;20636;-70
2023/09/13 06:23:36;;;;;;;2.07;1.90;;;;;;;23.47;67.59;99761.16;5110531;28;20199;-70
2023/09/13 06:26:04;;;;;;;2.60;2.40;;;;;;;23.35;68.29;99754.22;5112878;28;20198;-69
2023/09/13 06:28:31;;;;;;;1.70;1.60;;;;;;;23.49;68.32;99759.22;5113095;28;20221;-69
2023/09/13 06:30:58;;;;;;;2.40;2.30;;;;;;;23.34;67.34;99756.00;5113322;28;20202;-70
2023/09/13 06:33:26;;;;;;;2.20;2.10;;;;;;;23.43;66.45;99759.72;5112716;28;20248;-69
2023/09/13 06:35:54;;;;;;;1.67;1.60;;;;;;;23.56;66.41;99757.81;5112843;28;20195;-70
2023/09/13 06:38:22;;;;;;;2.33;2.13;;;;;;;23.55;65.29;99765.81;5112880;28;20620;-70
2023/09/13 06:40:51;;;;;;;3.40;2.00;;;;;;;23.53;66.71;99764.13;5112771;28;20194;-70
2023/09/13 06:43:18;;;;;;;2.10;2.00;;;;;;;23.68;65.93;99766.50;5112679;28;20199;-70
2023/09/13 06:45:44;;;;;;;2.07;1.70;;;;;;;23.85;66.74;99764.22;5110877;28;20226;-70
2023/09/13 06:48:11;;;;;;;1.50;1.50;;;;;;;23.97;65.19;99763.25;5113090;28;20256;-69
2023/09/13 06:50:38;;;;;;;2.27;1.80;;;;;;;24.10;63.82;99763.13;5112897;28;20199;-69
2023/09/13 06:53:04;;;;;;;2.37;1.93;;;;;;;24.26;64.68;99763.59;5112614;28;20199;-69
2023/09/13 06:55:33;;;;;;;1.97;1.77;;;;;;;24.42;63.79;99763.16;5112211;28;20666;-69
2023/09/13 06:58:05;;;;;;;1.60;1.60;;;;;;;24.57;63.52;99759.28;5112281;28;20203;-69
2023/09/13 07:00:31;;;;;;;1.80;1.70;;;;;;;24.70;60.44;99752.06;5092945;28;20207;-69
2023/09/13 07:02:58;;;;;;;1.80;1.70;;;;;;;24.71;60.54;99751.13;5107209;28;20221;-70
2023/09/13 07:05:25;;;;;;;1.93;1.80;;;;;;;24.84;60.00;99746.56;5112787;28;20746;-70
2023/09/13 07:07:52;;;;;;;2.00;1.73;;;;;;;24.93;59.72;99753.66;5112976;28;20264;-69
2023/09/13 07:10:19;;;;;;;2.40;2.30;;;;;;;25.08;59.45;99752.34;5112225;28;20201;-69
2023/09/13 07:12:47;;;;;;;1.43;1.43;;;;;;;25.31;59.20;99754.81;5112315;28;20286;-69
2023/09/13 07:15:15;;;;;;;1.83;1.70;;;;;;;25.36;57.66;99750.03;5113223;28;20210;-69
2023/09/13 07:17:42;;;;;;;1.60;1.53;;;;;;;25.35;57.93;99750.97;5112365;28;20582;-68
2023/09/13 07:20:10;;;;;;;1.83;1.73;;;;;;;25.57;58.92;99751.66;5112206;28;20666;-70
2023/09/13 07:22:37;;;;;;;1.70;1.70;;;;;;;25.77;57.46;99757.81;5111627;28;20198;-69
2023/09/13 07:25:05;;;;;;;1.97;1.87;;;;;;;25.86;56.63;99751.75;5111877;28;20727;-69
2023/09/13 07:27:32;;;;;;;1.13;1.13;;;;;;;26.06;54.62;99742.09;5112198;28;20199;-70
2023/09/13 07:30:00;;;;;;;3.27;2.00;;;;;;;26.19;54.01;99752.38;5111939;28;20202;-70
2023/09/13 07:32:27;;;;;;;3.53;2.53;;;;;;;26.16;55.78;99739.47;5108196;28;20267;-70
2023/09/13 07:34:54;;;;;;;2.20;1.50;;;;;;;26.20;55.57;99738.28;5111778;28;20752;-70
2023/09/13 07:37:21;;;;;;;1.60;1.50;;;;;;;26.25;55.11;99725.53;5111586;28;20233;-70
2023/09/13 07:39:48;;;;;;;1.60;1.57;;;;;;;26.34;54.37;99741.31;5110312;28;20203;-70
2023/09/13 07:42:16;;;;;;;2.37;2.27;;;;;;;26.31;55.95;99735.50;5110852;28;20221;-70
2023/09/13 07:44:42;;;;;;;1.73;1.63;;;;;;;26.55;54.99;99743.81;5111055;28;20213;-69
2023/09/13 07:47:11;;;;;;;1.90;1.80;;;;;;;26.74;54.24;99733.28;5111590;28;20225;-70
2023/09/13 07:49:37;;;;;;;5.30;1.70;;;;;;;26.85;54.29;99741.03;5111232;28;20581;-70
2023/09/13 07:52:05;;;;;;;1.57;1.40;;;;;;;26.94;51.91;99745.47;5111452;28;20198;-68
2023/09/13 07:54:32;;;;;;;8.27;1.50;;;;;;;27.01;52.69;99737.84;5111042;28;20194;-67
2023/09/13 07:56:58;;;;;;;1.77;1.67;;;;;;;26.93;53.60;99741.19;5111365;28;20586;-71
2023/09/13 07:59:26;;;;;;;1.30;1.30;;;;;;;27.06;50.92;99731.16;5113875;28;20251;-69
2023/09/13 08:01:53;;;;;;;1.93;1.83;;;;;;;27.11;51.33;99731.56;5114125;27;20243;-70
2023/09/13 08:04:21;;;;;;;1.40;1.30;;;;;;;27.21;52.79;99733.31;5111240;28;20738;-71
2023/09/13 08:06:48;;;;;;;1.70;1.60;;;;;;;27.44;52.45;99724.97;5111045;28;20203;-70
2023/09/13 08:09:15;;;;;;;1.63;1.53;;;;;;;27.52;50.17;99726.88;5111504;28;20203;-71
2023/09/13 08:11:42;;;;;;;1.10;1.10;;;;;;;27.63;48.77;99737.19;5111461;28;20686;-71
2023/09/13 08:14:09;;;;;;;1.90;1.80;;;;;;;27.65;49.83;99732.63;5114310;28;20198;-70
2023/09/13 08:16:36;;;;;;;1.80;1.43;;;;;;;27.64;49.93;99733.59;5115309;28;20713;-70
2023/09/13 08:19:03;;;;;;;1.70;1.70;;;;;;;27.66;48.68;99726.38;5115313;28;20210;-71
2023/09/13 08:21:33;;;;;;;1.30;1.23;;;;;;;27.58;50.35;99726.28;5114338;28;20226;-71
2023/09/13 08:24:01;;;;;;;1.47;1.37;;;;;;;27.67;49.19;99709.59;5114797;28;20217;-70
2023/09/13 08:26:29;;;;;;;1.10;1.10;;;;;;;27.84;47.80;99718.50;5115163;28;20202;-70
2023/09/13 08:28:56;;;;;;;1.17;1.17;;;;;;;27.86;47.88;99722.66;5115386;28;20195;-71
2023/09/13 08:31:25;;;;;;;1.20;1.20;;;;;;;28.00;47.90;99713.41;5112445;28;20194;-69
2023/09/13 08:33:52;;;;;;;3.37;1.40;;;;;;;28.05;48.18;99716.41;5112450;28;20584;-70
2023/09/13 08:36:19;;;;;;;1.27;1.27;;;;;;;28.13;47.43;99708.63;5115810;28;20570;-70
2023/09/13 08:38:51;;;;;;;1.20;1.03;;;;;;;28.19;49.30;99701.94;5115587;28;20202;-69
2023/09/13 08:41:18;;;;;;;1.40;1.40;;;;;;;28.30;47.45;99699.06;5115307;28;20662;-71
2023/09/13 08:43:47;;;;;;;1.23;1.23;;;;;;;28.39;47.95;99704.25;5115231;28;20203;-70
2023/09/13 08:46:15;;;;;;;1.57;1.47;;;;;;;28.47;47.00;99706.13;5109754;28;20237;-71
2023/09/13 08:48:43;;;;;;;1.13;1.13;;;;;;;28.65;46.94;99706.94;5114165;27;20203;-71
2023/09/13 08:51:11;;;;;;;1.30;1.30;;;;;;;28.66;45.35;99705.97;5114339;28;20199;-71
2023/09/13 08:53:40;;;;;;;1.90;1.33;;;;;;;28.52;43.59;99702.06;5115219;28;20670;-71
2023/09/13 08:56:09;;;;;;;1.13;1.13;;;;;;;28.69;45.11;99697.78;5109157;28;20202;-70
2023/09/13 08:58:36;;;;;;;1.00;1.00;;;;;;;28.81;43.88;99699.19;5115068;28;20199;-71
2023/09/13 09:01:09;;;;;;;1.10;1.10;;;;;;;28.74;45.50;99698.13;5114516;28;20219;-70
2023/09/13 09:03:36;;;;;;;1.23;1.23;;;;;;;28.83;47.06;99696.34;5114018;28;20559;-70
2023/09/13 09:06:05;;;;;;;1.27;1.27;;;;;;;28.89;43.47;99696.56;5114796;28;20256;-71
2023/09/13 09:08:36;;;;;;;1.40;1.40;;;;;;;28.78;42.48;99696.00;5114975;28;20202;-70
2023/09/13 09:11:04;;;;;;;1.00;1.00;;;;;;;28.58;44.26;99690.06;5113674;28;20195;-68
2023/09/13 09:13:33;;;;;;;0.90;0.90;;;;;;;28.55;43.48;99693.00;5113085;28;20195;-68
2023/09/13 09:16:02;;;;;;;1.10;1.10;;;;;;;28.67;42.81;99691.81;5112932;28;20645;-67
2023/09/13 09:18:32;;;;;;;1.50;1.40;;;;;;;28.78;43.42;99691.56;5113742;27;20281;-72
2023/09/13 09:20:59;;;;;;;0.90;0.90;;;;;;;28.91;43.30;99694.63;5112882;28;20297;-71
2023/09/13 09:23:29;;;;;;;1.35;1.35;;;;;;;29.03;42.57;99690.72;5114096;28;20206;-74
2023/09/13 09:25:56;;;;;;;3.45;1.05;;;;;;;29.14;41.92;99687.78;5113371;28;20206;-72
2023/09/13 09:28:23;;;;;;;1.57;1.43;;;;;;;29.15;42.48;99681.53;5114023;28;20198;-71
2023/09/13 09:30:53;;;;;;;0.90;0.90;;;;;;;29.15;44.87;99675.44;5115269;28;20742;-71
2023/09/13 09:33:27;;;;;;;1.37;1.37;;;;;;;29.06;44.73;99674.56;5114542;28;20203;-72
2023/09/13 09:35:55;;;;;;;1.10;1.10;;;;;;;29.16;47.54;99648.88;5114332;28;20209;-72
2023/09/13 09:38:23;;;;;;;1.10;1.10;;;;;;;29.39;42.79;99672.94;5114470;28;20226;-72
2023/09/13 09:40:50;;;;;;;1.05;1.05;;;;;;;29.45;41.81;99666.19;5114527;28;20248;-72
2023/09/13 09:43:17;;;;;;;1.00;0.95;;;;;;;29.32;41.96;99665.78;5114385;28;20229;-72
2023/09/13 09:45:44;;;;;;;1.23;1.23;;;;;;;29.26;43.79;99662.00;5113876;27;20230;-72
2023/09/13 09:48:13;;;;;;;1.08;1.08;;;;;;;29.21;43.27;99658.16;5113796;28;20203;-72
2023/09/13 09:50:45;;;;;;;1.20;1.20;;;;;;;28.93;44.51;99652.22;5112861;27;20666;-73
2023/09/13 09:53:13;;;;;;;0.90;0.90;;;;;;;28.89;44.73;99656.16;5113970;28;20630;-72
2023/09/13 09:55:40;;;;;;;1.00;1.00;;;;;;;28.91;43.51;99652.38;5113940;28;20202;-71
2023/09/13 09:58:07;;;;;;;0.80;0.80;;;;;;;29.10;44.67;99641.59;5113746;28;20207;-72
2023/09/13 10:00:45;;;;;;;1.07;1.07;;;;;;;29.19;42.78;99643.28;5113871;28;20206;-72
2023/09/13 10:03:17;;;;;;;2.92;0.95;;;;;;;29.28;41.23;99648.59;5112633;28;20202;-72
2023/09/13 10:05:54;;;;;;;2.60;1.10;;;;;;;29.33;41.34;99643.69;5112303;28;20686;-72
2023/09/13 10:08:36;;;;;;;0.93;0.93;;;;;;;29.43;39.92;99647.03;5112440;28;20213;-67
2023/09/13 10:11:03;;;;;;;1.08;1.08;;;;;;;29.50;39.55;99640.94;5113703;28;20306;-69
2023/09/13 10:13:31;;;;;;;1.13;1.10;;;;;;;29.40;41.54;99637.63;5112981;28;20203;-72
2023/09/13 10:15:58;;;;;;;1.30;1.20;;;;;;;29.52;41.52;99630.22;5112815;28;20191;-71
2023/09/13 10:18:27;;;;;;;1.00;1.00;;;;;;;29.72;39.71;99631.59;5112316;28;20199;-70
2023/09/13 10:20:58;;;;;;;1.30;1.30;;;;;;;29.67;41.71;99625.94;5111023;28;20248;-71
2023/09/13 10:23:31;;;;;;;0.82;0.82;;;;;;;29.65;41.97;99620.00;5111839;28;20202;-70
2023/09/13 10:26:02;;;;;;;1.10;1.10;;;;;;;29.57;41.56;99612.03;5111878;28;20758;-71
2023/09/13 10:28:35;;;;;;;1.85;1.10;;;;;;;29.69;42.75;99618.69;5111941;28;20198;-72
2023/09/13 10:31:04;;;;;;;0.95;0.95;;;;;;;29.77;42.08;99608.13;5112722;28;20663;-73
2023/09/13 10:33:36;;;;;;;1.00;1.00;;;;;;;29.67;41.63;99610.09;5112236;28;20297;-72
2023/09/13 10:36:07;;;;;;;0.90;0.90;;;;;;;29.78;41.86;99593.94;5112653;27;20195;-71
2023/09/13 10:38:42;;;;;;;0.70;0.70;;;;;;;29.99;43.30;99599.56;5111736;28;20195;-71
2023/09/13 10:41:16;;;;;;;6.45;1.33;;;;;;;30.14;44.47;99597.09;5112439;28;20251;-71
2023/09/13 10:43:44;;;;;;;1.02;1.02;;;;;;;30.31;41.36;99596.09;5111089;28;20202;-70
2023/09/13 10:46:12;;;;;;;1.00;1.00;;;;;;;30.33;42.10;99578.25;5112670;28;20258;-72
2023/09/13 10:48:42;;;;;;;1.17;1.17;;;;;;;30.59;40.45;99588.63;5112617;28;20191;-71
2023/09/13 10:51:12;;;;;;;1.67;1.40;;;;;;;30.63;41.08;99589.97;5112286;28;20220;-72
2023/09/13 10:53:41;;;;;;;1.10;1.10;;;;;;;30.59;37.86;99588.63;5111850;28;20616;-72
2023/09/13 10:56:11;;;;;;;1.00;1.00;;;;;;;30.36;39.43;99556.75;5112391;28;20191;-72
2023/09/13 10:58:39;;;;;;;1.85;1.10;;;;;;;30.55;39.01;99584.66;5110716;28;20199;-72
2023/09/13 11:01:07;;;;;;;1.10;1.10;;;;;;;30.34;38.01;99568.50;5111888;28;20194;-72
2023/09/13 11:03:34;;;;;;;1.10;1.10;;;;;;;30.59;39.45;99584.19;5111489;28;20325;-72
2023/09/13 11:06:04;;;;;;;0.88;0.88;;;;;;;30.67;38.51;99580.66;5109174;28;20217;-72
2023/09/13 11:08:32;;;;;;;1.38;1.27;;;;;;;30.59;39.12;99580.69;5110595;28;20670;-73
2023/09/13 11:11:09;;;;;;;0.90;0.90;;;;;;;30.62;39.60;99572.41;5110971;28;20206;-73
2023/09/13 11:13:36;;;;;;;1.08;1.08;;;;;;;30.82;39.16;99584.28;5110628;28;20195;-72
2023/09/13 11:16:04;;;;;;;1.67;1.60;;;;;;;30.76;37.96;99574.34;5110498;28;20264;-72
2023/09/13 11:18:34;;;;;;;3.35;1.05;;;;;;;30.81;37.97;99577.31;5110657;28;20206;-72
2023/09/13 11:21:18;;;;;;;1.10;1.10;;;;;;;30.98;40.09;99578.94;5110655;28;20198;-72
2023/09/13 11:23:49;;;;;;;0.98;0.98;;;;;;;31.03;37.47;99573.94;5106155;28;20210;-72
2023/09/13 11:26:16;;;;;;;1.02;1.02;;;;;;;31.10;37.45;99568.78;5110920;28;20219;-72
2023/09/13 11:28:48;;;;;;;1.77;1.40;;;;;;;30.98;37.60;99568.34;5112734;28;20210;-71
2023/09/13 11:31:21;;;;;;;1.73;1.63;;;;;;;30.93;38.19;99560.06;5111710;28;20741;-71
2023/09/13 11:33:55;;;;;;;1.42;1.42;;;;;;;31.08;38.25;99563.66;5111757;28;20198;-72
2023/09/13 11:36:27;;;;;;;1.20;1.20;;;;;;;31.08;39.76;99546.94;5111197;28;20248;-70
2023/09/13 11:38:55;;;;;;;1.13;1.10;;;;;;;31.16;38.35;99549.53;5110773;28;20644;-70